sensor_id;sensor_type;location;lat;lon;timestamp;P1;durP1;ratioP1;P2;durP2;ratioP2
78027;SDS011;67235;45.638;11.714;2023-04-29T00:00:53;14.53;;;7.40;;
78027;SDS011;67235;45.638;11.714;2023-04-29T00:03:20;10.35;;;6.13;;
78027;SDS011;67235;45.638;11.714;2023-04-29T00:05:46;13.13;;;7.15;;
78027;SDS011;67235;45.638;11.714;2023-04-29T00:08:12;14.00;;;7.43;;
78027;SDS011;67235;45.638;11.714;2023-04-29T00:10:39;14.60;;;8.13;;
78027;SDS011;67235;45.638;11.714;2023-04-29T00:13:05;13.20;;;7.38;;
78027;SDS011;67235;45.638;11.714;2023-04-29T00:15:31;13.43;;;7.47;;
78027;SDS011;67235;45.638;11.714;2023-04-29T00:17:57;12.02;;;6.82;;
78027;SDS011;67235;45.638;11.714;2023-04-29T00:20:23;11.03;;;6.47;;
78027;SDS011;67235;45.638;11.714;2023-04-29T00:22:49;13.35;;;7.35;;
78027;SDS011;67235;45.638;11.714;2023-04-29T00:25:14;15.50;;;7.47;;
78027;SDS011;67235;45.638;11.714;2023-04-29T00:27:41;17.00;;;9.10;;
78027;SDS011;67235;45.638;11.714;2023-04-29T00:30:07;14.95;;;8.25;;
78027;SDS011;67235;45.638;11.714;2023-04-29T00:32:33;12.82;;;8.02;;
78027;SDS011;67235;45.638;11.714;2023-04-29T00:34:59;14.90;;;8.47;;
78027;SDS011;67235;45.638;11.714;2023-04-29T00:37:25;14.48;;;8.10;;
78027;SDS011;67235;45.638;11.714;2023-04-29T00:39:51;13.32;;;7.85;;
78027;SDS011;67235;45.638;11.714;2023-04-29T00:42:17;14.40;;;8.13;;
78027;SDS011;67235;45.638;11.714;2023-04-29T00:44:43;15.65;;;8.35;;
78027;SDS011;67235;45.638;11.714;2023-04-29T00:47:09;13.90;;;8.52;;
78027;SDS011;67235;45.638;11.714;2023-04-29T00:49:36;16.63;;;8.32;;
78027;SDS011;67235;45.638;11.714;2023-04-29T00:52:06;13.53;;;8.20;;
78027;SDS011;67235;45.638;11.714;2023-04-29T00:54:33;14.50;;;8.35;;
78027;SDS011;67235;45.638;11.714;2023-04-29T00:57:00;15.80;;;8.00;;
78027;SDS011;67235;45.638;11.714;2023-04-29T00:59:27;14.90;;;7.88;;
78027;SDS011;67235;45.638;11.714;2023-04-29T01:02:05;14.82;;;8.27;;
78027;SDS011;67235;45.638;11.714;2023-04-29T01:04:31;16.67;;;8.50;;
78027;SDS011;67235;45.638;11.714;2023-04-29T01:14:36;15.13;;;8.47;;
78027;SDS011;67235;45.638;11.714;2023-04-29T01:17:10;14.63;;;8.25;;
78027;SDS011;67235;45.638;11.714;2023-04-29T01:22:11;12.55;;;7.53;;
78027;SDS011;67235;45.638;11.714;2023-04-29T01:24:38;13.13;;;7.10;;
78027;SDS011;67235;45.638;11.714;2023-04-29T01:27:23;13.43;;;7.40;;
78027;SDS011;67235;45.638;11.714;2023-04-29T01:30:09;12.93;;;7.45;;
78027;SDS011;67235;45.638;11.714;2023-04-29T01:35:36;14.55;;;7.57;;
78027;SDS011;67235;45.638;11.714;2023-04-29T01:38:33;13.55;;;7.72;;
78027;SDS011;67235;45.638;11.714;2023-04-29T01:43:51;14.95;;;7.53;;
78027;SDS011;67235;45.638;11.714;2023-04-29T01:46:20;13.35;;;7.03;;
78027;SDS011;67235;45.638;11.714;2023-04-29T01:48:46;14.30;;;7.78;;
78027;SDS011;67235;45.638;11.714;2023-04-29T01:51:12;16.03;;;7.33;;
78027;SDS011;67235;45.638;11.714;2023-04-29T01:53:38;13.30;;;6.55;;
78027;SDS011;67235;45.638;11.714;2023-04-29T01:56:07;13.13;;;6.75;;
78027;SDS011;67235;45.638;11.714;2023-04-29T01:58:33;12.27;;;7.10;;
78027;SDS011;67235;45.638;11.714;2023-04-29T02:00:59;12.50;;;7.00;;
78027;SDS011;67235;45.638;11.714;2023-04-29T02:03:24;12.50;;;7.18;;
78027;SDS011;67235;45.638;11.714;2023-04-29T02:05:50;16.40;;;9.10;;
78027;SDS011;67235;45.638;11.714;2023-04-29T02:08:17;15.43;;;8.00;;
78027;SDS011;67235;45.638;11.714;2023-04-29T02:10:56;13.68;;;7.97;;
78027;SDS011;67235;45.638;11.714;2023-04-29T02:13:23;15.70;;;8.25;;
78027;SDS011;67235;45.638;11.714;2023-04-29T02:15:49;13.93;;;7.20;;
78027;SDS011;67235;45.638;11.714;2023-04-29T02:18:15;16.27;;;7.95;;
78027;SDS011;67235;45.638;11.714;2023-04-29T02:20:41;12.13;;;7.20;;
78027;SDS011;67235;45.638;11.714;2023-04-29T02:23:07;12.23;;;6.23;;
78027;SDS011;67235;45.638;11.714;2023-04-29T02:25:33;13.30;;;7.10;;
78027;SDS011;67235;45.638;11.714;2023-04-29T02:27:58;12.95;;;7.22;;
78027;SDS011;67235;45.638;11.714;2023-04-29T02:30:24;12.40;;;7.20;;
78027;SDS011;67235;45.638;11.714;2023-04-29T02:32:50;14.00;;;7.30;;
78027;SDS011;67235;45.638;11.714;2023-04-29T02:35:17;13.20;;;7.18;;
78027;SDS011;67235;45.638;11.714;2023-04-29T02:37:43;11.27;;;6.40;;
78027;SDS011;67235;45.638;11.714;2023-04-29T02:40:09;11.65;;;7.15;;
78027;SDS011;67235;45.638;11.714;2023-04-29T02:42:35;14.50;;;7.30;;
78027;SDS011;67235;45.638;11.714;2023-04-29T02:45:02;15.10;;;7.30;;
78027;SDS011;67235;45.638;11.714;2023-04-29T02:47:28;11.93;;;6.80;;
78027;SDS011;67235;45.638;11.714;2023-04-29T02:49:54;11.95;;;6.82;;
78027;SDS011;67235;45.638;11.714;2023-04-29T02:52:19;13.02;;;7.30;;
78027;SDS011;67235;45.638;11.714;2023-04-29T02:54:45;15.13;;;7.33;;
78027;SDS011;67235;45.638;11.714;2023-04-29T02:57:11;14.27;;;7.32;;
78027;SDS011;67235;45.638;11.714;2023-04-29T02:59:37;12.60;;;6.93;;
78027;SDS011;67235;45.638;11.714;2023-04-29T03:02:03;11.38;;;6.65;;
78027;SDS011;67235;45.638;11.714;2023-04-29T03:04:29;12.38;;;7.25;;
78027;SDS011;67235;45.638;11.714;2023-04-29T03:06:55;13.47;;;7.67;;
78027;SDS011;67235;45.638;11.714;2023-04-29T03:09:21;12.68;;;7.38;;
78027;SDS011;67235;45.638;11.714;2023-04-29T03:11:47;12.45;;;7.75;;
78027;SDS011;67235;45.638;11.714;2023-04-29T03:14:13;15.07;;;7.85;;
78027;SDS011;67235;45.638;11.714;2023-04-29T03:16:39;12.85;;;6.95;;
78027;SDS011;67235;45.638;11.714;2023-04-29T03:19:05;12.35;;;7.32;;
78027;SDS011;67235;45.638;11.714;2023-04-29T03:21:31;11.77;;;6.80;;
78027;SDS011;67235;45.638;11.714;2023-04-29T03:23:57;12.87;;;6.67;;
78027;SDS011;67235;45.638;11.714;2023-04-29T03:26:23;17.02;;;7.68;;
78027;SDS011;67235;45.638;11.714;2023-04-29T03:28:49;11.85;;;7.18;;
78027;SDS011;67235;45.638;11.714;2023-04-29T03:31:16;13.13;;;7.22;;
78027;SDS011;67235;45.638;11.714;2023-04-29T03:33:42;14.27;;;7.60;;
78027;SDS011;67235;45.638;11.714;2023-04-29T03:36:08;14.95;;;6.75;;
78027;SDS011;67235;45.638;11.714;2023-04-29T03:38:34;13.10;;;6.70;;
78027;SDS011;67235;45.638;11.714;2023-04-29T03:41:00;16.33;;;7.72;;
78027;SDS011;67235;45.638;11.714;2023-04-29T03:43:26;14.38;;;7.43;;
78027;SDS011;67235;45.638;11.714;2023-04-29T03:45:52;12.32;;;6.80;;
78027;SDS011;67235;45.638;11.714;2023-04-29T03:48:18;12.35;;;6.43;;
78027;SDS011;67235;45.638;11.714;2023-04-29T03:50:44;13.50;;;6.73;;
78027;SDS011;67235;45.638;11.714;2023-04-29T03:53:11;13.73;;;7.88;;
78027;SDS011;67235;45.638;11.714;2023-04-29T03:55:38;12.05;;;7.03;;
78027;SDS011;67235;45.638;11.714;2023-04-29T03:58:04;12.50;;;7.43;;
78027;SDS011;67235;45.638;11.714;2023-04-29T04:00:30;13.43;;;7.73;;
78027;SDS011;67235;45.638;11.714;2023-04-29T04:02:57;12.80;;;7.68;;
78027;SDS011;67235;45.638;11.714;2023-04-29T04:05:23;13.32;;;8.15;;
78027;SDS011;67235;45.638;11.714;2023-04-29T04:07:52;11.82;;;7.38;;
78027;SDS011;67235;45.638;11.714;2023-04-29T04:10:19;15.33;;;7.90;;
78027;SDS011;67235;45.638;11.714;2023-04-29T04:12:45;14.30;;;7.70;;
78027;SDS011;67235;45.638;11.714;2023-04-29T04:15:13;13.77;;;7.65;;
78027;SDS011;67235;45.638;11.714;2023-04-29T04:17:41;13.45;;;8.18;;
78027;SDS011;67235;45.638;11.714;2023-04-29T04:20:07;14.10;;;8.35;;
78027;SDS011;67235;45.638;11.714;2023-04-29T04:22:33;15.70;;;8.90;;
78027;SDS011;67235;45.638;11.714;2023-04-29T04:24:59;13.90;;;7.93;;
78027;SDS011;67235;45.638;11.714;2023-04-29T04:27:25;16.13;;;8.52;;
78027;SDS011;67235;45.638;11.714;2023-04-29T04:29:54;15.20;;;8.53;;
78027;SDS011;67235;45.638;11.714;2023-04-29T04:32:23;13.45;;;8.55;;
78027;SDS011;67235;45.638;11.714;2023-04-29T04:34:58;15.45;;;7.63;;
78027;SDS011;67235;45.638;11.714;2023-04-29T04:37:24;12.20;;;7.60;;
78027;SDS011;67235;45.638;11.714;2023-04-29T04:39:49;12.30;;;7.68;;
78027;SDS011;67235;45.638;11.714;2023-04-29T04:42:15;16.13;;;7.97;;
78027;SDS011;67235;45.638;11.714;2023-04-29T04:44:41;17.13;;;7.95;;
78027;SDS011;67235;45.638;11.714;2023-04-29T04:47:07;11.77;;;6.88;;
78027;SDS011;67235;45.638;11.714;2023-04-29T04:49:35;13.50;;;7.50;;
78027;SDS011;67235;45.638;11.714;2023-04-29T04:52:02;15.60;;;8.37;;
78027;SDS011;67235;45.638;11.714;2023-04-29T04:54:28;13.15;;;7.13;;
78027;SDS011;67235;45.638;11.714;2023-04-29T04:56:54;12.88;;;7.72;;
78027;SDS011;67235;45.638;11.714;2023-04-29T04:59:21;12.38;;;7.55;;
78027;SDS011;67235;45.638;11.714;2023-04-29T05:01:47;13.02;;;7.28;;
78027;SDS011;67235;45.638;11.714;2023-04-29T05:04:13;12.90;;;7.00;;
78027;SDS011;67235;45.638;11.714;2023-04-29T05:06:39;13.13;;;7.53;;
78027;SDS011;67235;45.638;11.714;2023-04-29T05:09:05;14.53;;;7.17;;
78027;SDS011;67235;45.638;11.714;2023-04-29T05:11:31;10.57;;;6.47;;
78027;SDS011;67235;45.638;11.714;2023-04-29T05:13:56;12.10;;;7.27;;
78027;SDS011;67235;45.638;11.714;2023-04-29T05:16:22;17.02;;;7.90;;
78027;SDS011;67235;45.638;11.714;2023-04-29T05:18:48;14.48;;;7.55;;
78027;SDS011;67235;45.638;11.714;2023-04-29T05:21:14;12.73;;;7.17;;
78027;SDS011;67235;45.638;11.714;2023-04-29T05:23:40;14.90;;;8.32;;
78027;SDS011;67235;45.638;11.714;2023-04-29T05:26:11;14.25;;;8.07;;
78027;SDS011;67235;45.638;11.714;2023-04-29T05:28:40;14.80;;;7.77;;
78027;SDS011;67235;45.638;11.714;2023-04-29T05:31:10;13.93;;;7.10;;
78027;SDS011;67235;45.638;11.714;2023-04-29T05:33:39;14.25;;;7.20;;
78027;SDS011;67235;45.638;11.714;2023-04-29T05:36:07;16.55;;;8.40;;
78027;SDS011;67235;45.638;11.714;2023-04-29T05:38:34;14.70;;;8.10;;
78027;SDS011;67235;45.638;11.714;2023-04-29T05:41:01;13.70;;;7.72;;
78027;SDS011;67235;45.638;11.714;2023-04-29T05:43:31;13.77;;;7.50;;
78027;SDS011;67235;45.638;11.714;2023-04-29T05:45:58;13.77;;;7.30;;
78027;SDS011;67235;45.638;11.714;2023-04-29T05:48:24;14.00;;;7.95;;
78027;SDS011;67235;45.638;11.714;2023-04-29T05:50:49;14.53;;;8.60;;
78027;SDS011;67235;45.638;11.714;2023-04-29T05:53:16;13.50;;;7.97;;
78027;SDS011;67235;45.638;11.714;2023-04-29T05:55:42;13.70;;;8.00;;
78027;SDS011;67235;45.638;11.714;2023-04-29T05:58:09;14.50;;;8.40;;
78027;SDS011;67235;45.638;11.714;2023-04-29T06:00:36;13.87;;;8.27;;
78027;SDS011;67235;45.638;11.714;2023-04-29T06:03:02;17.40;;;9.20;;
78027;SDS011;67235;45.638;11.714;2023-04-29T06:05:28;16.98;;;9.25;;
78027;SDS011;67235;45.638;11.714;2023-04-29T06:07:57;13.13;;;8.10;;
78027;SDS011;67235;45.638;11.714;2023-04-29T06:10:27;12.82;;;7.35;;
78027;SDS011;67235;45.638;11.714;2023-04-29T06:12:55;13.13;;;7.50;;
78027;SDS011;67235;45.638;11.714;2023-04-29T06:15:25;15.00;;;7.60;;
78027;SDS011;67235;45.638;11.714;2023-04-29T06:17:57;13.50;;;7.13;;
78027;SDS011;67235;45.638;11.714;2023-04-29T06:20:24;13.05;;;7.20;;
78027;SDS011;67235;45.638;11.714;2023-04-29T06:22:52;12.43;;;7.03;;
78027;SDS011;67235;45.638;11.714;2023-04-29T06:25:19;11.40;;;6.97;;
78027;SDS011;67235;45.638;11.714;2023-04-29T06:27:45;15.07;;;7.28;;
78027;SDS011;67235;45.638;11.714;2023-04-29T06:30:11;18.30;;;7.53;;
78027;SDS011;67235;45.638;11.714;2023-04-29T06:32:40;12.50;;;7.28;;
78027;SDS011;67235;45.638;11.714;2023-04-29T06:35:06;12.90;;;7.47;;
78027;SDS011;67235;45.638;11.714;2023-04-29T06:37:32;12.07;;;6.80;;
78027;SDS011;67235;45.638;11.714;2023-04-29T06:39:58;13.18;;;7.47;;
78027;SDS011;67235;45.638;11.714;2023-04-29T06:42:24;12.02;;;7.03;;
78027;SDS011;67235;45.638;11.714;2023-04-29T06:44:50;16.53;;;7.20;;
78027;SDS011;67235;45.638;11.714;2023-04-29T06:47:16;13.43;;;7.47;;
78027;SDS011;67235;45.638;11.714;2023-04-29T06:49:41;12.27;;;7.20;;
78027;SDS011;67235;45.638;11.714;2023-04-29T06:52:08;13.38;;;7.03;;
78027;SDS011;67235;45.638;11.714;2023-04-29T06:54:34;11.27;;;6.57;;
78027;SDS011;67235;45.638;11.714;2023-04-29T06:57:00;11.82;;;7.20;;
78027;SDS011;67235;45.638;11.714;2023-04-29T06:59:26;11.82;;;7.22;;
78027;SDS011;67235;45.638;11.714;2023-04-29T07:01:52;12.93;;;7.07;;
78027;SDS011;67235;45.638;11.714;2023-04-29T07:04:18;14.80;;;7.20;;
78027;SDS011;67235;45.638;11.714;2023-04-29T07:06:44;12.15;;;6.93;;
78027;SDS011;67235;45.638;11.714;2023-04-29T07:09:14;11.85;;;7.22;;
78027;SDS011;67235;45.638;11.714;2023-04-29T07:11:40;14.80;;;8.45;;
78027;SDS011;67235;45.638;11.714;2023-04-29T07:14:06;16.73;;;9.43;;
78027;SDS011;67235;45.638;11.714;2023-04-29T07:16:32;16.10;;;9.10;;
78027;SDS011;67235;45.638;11.714;2023-04-29T07:18:58;17.53;;;8.43;;
78027;SDS011;67235;45.638;11.714;2023-04-29T07:21:24;15.40;;;9.27;;
78027;SDS011;67235;45.638;11.714;2023-04-29T07:23:50;23.20;;;12.77;;
78027;SDS011;67235;45.638;11.714;2023-04-29T07:26:16;20.48;;;10.57;;
78027;SDS011;67235;45.638;11.714;2023-04-29T07:28:43;14.07;;;8.03;;
78027;SDS011;67235;45.638;11.714;2023-04-29T07:31:09;11.00;;;6.53;;
78027;SDS011;67235;45.638;11.714;2023-04-29T07:33:36;12.63;;;6.95;;
78027;SDS011;67235;45.638;11.714;2023-04-29T07:36:02;10.00;;;5.88;;
78027;SDS011;67235;45.638;11.714;2023-04-29T07:38:29;11.45;;;6.50;;
78027;SDS011;67235;45.638;11.714;2023-04-29T07:40:55;10.17;;;6.53;;
78027;SDS011;67235;45.638;11.714;2023-04-29T07:43:21;13.05;;;6.80;;
78027;SDS011;67235;45.638;11.714;2023-04-29T07:45:47;12.15;;;6.18;;
78027;SDS011;67235;45.638;11.714;2023-04-29T07:48:13;11.55;;;6.75;;
78027;SDS011;67235;45.638;11.714;2023-04-29T07:50:39;9.83;;;5.77;;
78027;SDS011;67235;45.638;11.714;2023-04-29T07:53:13;12.43;;;7.20;;
78027;SDS011;67235;45.638;11.714;2023-04-29T07:55:40;11.30;;;6.30;;
78027;SDS011;67235;45.638;11.714;2023-04-29T07:58:07;9.07;;;6.28;;
78027;SDS011;67235;45.638;11.714;2023-04-29T08:00:33;11.73;;;6.33;;
78027;SDS011;67235;45.638;11.714;2023-04-29T08:02:59;11.57;;;6.70;;
78027;SDS011;67235;45.638;11.714;2023-04-29T08:05:25;12.33;;;7.00;;
78027;SDS011;67235;45.638;11.714;2023-04-29T08:07:51;12.10;;;6.38;;
78027;SDS011;67235;45.638;11.714;2023-04-29T08:10:17;10.90;;;5.93;;
78027;SDS011;67235;45.638;11.714;2023-04-29T08:12:47;10.13;;;6.00;;
78027;SDS011;67235;45.638;11.714;2023-04-29T08:15:16;11.90;;;6.55;;
78027;SDS011;67235;45.638;11.714;2023-04-29T08:17:45;10.77;;;6.50;;
78027;SDS011;67235;45.638;11.714;2023-04-29T08:20:11;13.02;;;6.28;;
78027;SDS011;67235;45.638;11.714;2023-04-29T08:22:37;10.98;;;6.30;;
78027;SDS011;67235;45.638;11.714;2023-04-29T08:25:03;12.77;;;6.17;;
78027;SDS011;67235;45.638;11.714;2023-04-29T08:27:29;10.43;;;6.22;;
78027;SDS011;67235;45.638;11.714;2023-04-29T08:29:55;12.88;;;7.22;;
78027;SDS011;67235;45.638;11.714;2023-04-29T08:32:21;26.45;;;12.38;;
78027;SDS011;67235;45.638;11.714;2023-04-29T08:34:47;13.57;;;7.40;;
78027;SDS011;67235;45.638;11.714;2023-04-29T08:37:13;12.48;;;6.60;;
78027;SDS011;67235;45.638;11.714;2023-04-29T08:39:40;11.85;;;6.43;;
78027;SDS011;67235;45.638;11.714;2023-04-29T08:42:11;11.88;;;6.57;;
78027;SDS011;67235;45.638;11.714;2023-04-29T08:44:37;11.40;;;6.82;;
78027;SDS011;67235;45.638;11.714;2023-04-29T08:47:05;10.43;;;6.68;;
78027;SDS011;67235;45.638;11.714;2023-04-29T08:49:31;12.60;;;6.93;;
78027;SDS011;67235;45.638;11.714;2023-04-29T08:51:58;12.80;;;6.22;;
78027;SDS011;67235;45.638;11.714;2023-04-29T08:54:24;12.00;;;6.50;;
78027;SDS011;67235;45.638;11.714;2023-04-29T08:56:52;12.25;;;6.47;;
78027;SDS011;67235;45.638;11.714;2023-04-29T08:59:22;10.80;;;6.18;;
78027;SDS011;67235;45.638;11.714;2023-04-29T09:01:49;11.63;;;6.05;;
78027;SDS011;67235;45.638;11.714;2023-04-29T09:07:03;11.43;;;6.32;;
78027;SDS011;67235;45.638;11.714;2023-04-29T09:09:31;11.20;;;6.57;;
78027;SDS011;67235;45.638;11.714;2023-04-29T09:11:57;11.15;;;6.35;;
78027;SDS011;67235;45.638;11.714;2023-04-29T09:14:23;13.40;;;7.43;;
78027;SDS011;67235;45.638;11.714;2023-04-29T09:16:49;11.73;;;5.72;;
78027;SDS011;67235;45.638;11.714;2023-04-29T09:19:31;16.13;;;9.60;;
78027;SDS011;67235;45.638;11.714;2023-04-29T09:21:59;20.38;;;17.20;;
78027;SDS011;67235;45.638;11.714;2023-04-29T09:24:26;15.45;;;10.48;;
78027;SDS011;67235;45.638;11.714;2023-04-29T09:26:53;13.15;;;8.00;;
78027;SDS011;67235;45.638;11.714;2023-04-29T09:29:19;12.27;;;7.00;;
78027;SDS011;67235;45.638;11.714;2023-04-29T09:31:46;12.43;;;7.10;;
78027;SDS011;67235;45.638;11.714;2023-04-29T09:34:12;12.48;;;6.57;;
78027;SDS011;67235;45.638;11.714;2023-04-29T09:39:10;12.13;;;6.20;;
78027;SDS011;67235;45.638;11.714;2023-04-29T09:44:19;11.17;;;6.30;;
78027;SDS011;67235;45.638;11.714;2023-04-29T09:49:34;14.40;;;6.35;;
78027;SDS011;67235;45.638;11.714;2023-04-29T09:52:05;12.90;;;6.28;;
78027;SDS011;67235;45.638;11.714;2023-04-29T09:54:32;11.15;;;6.18;;
78027;SDS011;67235;45.638;11.714;2023-04-29T09:57:01;11.40;;;6.07;;
78027;SDS011;67235;45.638;11.714;2023-04-29T09:59:31;12.82;;;6.68;;
78027;SDS011;67235;45.638;11.714;2023-04-29T10:02:04;12.70;;;6.03;;
78027;SDS011;67235;45.638;11.714;2023-04-29T10:04:36;12.18;;;6.90;;
78027;SDS011;67235;45.638;11.714;2023-04-29T10:07:05;12.60;;;6.63;;
78027;SDS011;67235;45.638;11.714;2023-04-29T10:09:33;12.37;;;6.30;;
78027;SDS011;67235;45.638;11.714;2023-04-29T10:12:02;11.90;;;5.68;;
78027;SDS011;67235;45.638;11.714;2023-04-29T10:14:34;11.25;;;5.82;;
78027;SDS011;67235;45.638;11.714;2023-04-29T10:17:15;9.80;;;5.00;;
78027;SDS011;67235;45.638;11.714;2023-04-29T10:22:28;10.83;;;5.50;;
78027;SDS011;67235;45.638;11.714;2023-04-29T10:25:04;11.75;;;6.07;;
78027;SDS011;67235;45.638;11.714;2023-04-29T10:27:34;10.32;;;5.22;;
78027;SDS011;67235;45.638;11.714;2023-04-29T10:30:01;12.10;;;5.90;;
78027;SDS011;67235;45.638;11.714;2023-04-29T10:32:29;12.80;;;5.60;;
78027;SDS011;67235;45.638;11.714;2023-04-29T10:34:58;11.73;;;5.90;;
78027;SDS011;67235;45.638;11.714;2023-04-29T10:37:26;10.55;;;5.50;;
78027;SDS011;67235;45.638;11.714;2023-04-29T10:40:00;10.98;;;6.07;;
78027;SDS011;67235;45.638;11.714;2023-04-29T10:42:50;10.45;;;5.85;;
78027;SDS011;67235;45.638;11.714;2023-04-29T10:45:21;10.82;;;6.18;;
78027;SDS011;67235;45.638;11.714;2023-04-29T10:53:16;13.15;;;6.30;;
78027;SDS011;67235;45.638;11.714;2023-04-29T10:55:53;10.50;;;6.05;;
78027;SDS011;67235;45.638;11.714;2023-04-29T10:58:35;10.48;;;6.30;;
78027;SDS011;67235;45.638;11.714;2023-04-29T11:01:03;13.53;;;9.17;;
78027;SDS011;67235;45.638;11.714;2023-04-29T11:03:51;11.55;;;7.35;;
78027;SDS011;67235;45.638;11.714;2023-04-29T11:06:47;12.75;;;8.55;;
78027;SDS011;67235;45.638;11.714;2023-04-29T11:09:23;12.30;;;6.75;;
78027;SDS011;67235;45.638;11.714;2023-04-29T11:14:25;12.33;;;7.07;;
78027;SDS011;67235;45.638;11.714;2023-04-29T11:17:01;13.32;;;8.10;;
78027;SDS011;67235;45.638;11.714;2023-04-29T11:19:36;12.85;;;7.55;;
78027;SDS011;67235;45.638;11.714;2023-04-29T11:24:47;14.68;;;8.35;;
78027;SDS011;67235;45.638;11.714;2023-04-29T11:27:14;10.13;;;6.20;;
78027;SDS011;67235;45.638;11.714;2023-04-29T11:29:40;11.30;;;6.22;;
78027;SDS011;67235;45.638;11.714;2023-04-29T11:32:06;12.27;;;6.20;;
78027;SDS011;67235;45.638;11.714;2023-04-29T11:34:32;10.73;;;6.57;;
78027;SDS011;67235;45.638;11.714;2023-04-29T11:36:58;10.60;;;6.07;;
78027;SDS011;67235;45.638;11.714;2023-04-29T11:39:25;11.15;;;6.65;;
78027;SDS011;67235;45.638;11.714;2023-04-29T11:41:51;10.85;;;5.95;;
78027;SDS011;67235;45.638;11.714;2023-04-29T11:44:28;11.73;;;6.50;;
78027;SDS011;67235;45.638;11.714;2023-04-29T11:47:00;14.00;;;7.37;;
78027;SDS011;67235;45.638;11.714;2023-04-29T11:49:32;12.03;;;7.50;;
78027;SDS011;67235;45.638;11.714;2023-04-29T11:51:59;14.27;;;7.82;;
78027;SDS011;67235;45.638;11.714;2023-04-29T11:54:25;12.27;;;6.13;;
78027;SDS011;67235;45.638;11.714;2023-04-29T11:56:53;10.65;;;5.70;;
78027;SDS011;67235;45.638;11.714;2023-04-29T11:59:22;11.95;;;6.40;;
78027;SDS011;67235;45.638;11.714;2023-04-29T12:01:48;10.37;;;5.93;;
78027;SDS011;67235;45.638;11.714;2023-04-29T12:04:15;10.90;;;6.38;;
78027;SDS011;67235;45.638;11.714;2023-04-29T12:06:41;12.88;;;7.90;;
78027;SDS011;67235;45.638;11.714;2023-04-29T12:09:07;9.98;;;6.13;;
78027;SDS011;67235;45.638;11.714;2023-04-29T12:11:33;10.57;;;5.97;;
78027;SDS011;67235;45.638;11.714;2023-04-29T12:14:02;12.17;;;6.43;;
78027;SDS011;67235;45.638;11.714;2023-04-29T12:16:31;11.70;;;6.38;;
78027;SDS011;67235;45.638;11.714;2023-04-29T12:18:58;11.98;;;6.15;;
78027;SDS011;67235;45.638;11.714;2023-04-29T12:21:24;11.82;;;6.32;;
78027;SDS011;67235;45.638;11.714;2023-04-29T12:23:51;11.40;;;6.63;;
78027;SDS011;67235;45.638;11.714;2023-04-29T12:26:18;11.63;;;6.80;;
78027;SDS011;67235;45.638;11.714;2023-04-29T12:28:45;12.82;;;6.55;;
78027;SDS011;67235;45.638;11.714;2023-04-29T12:31:14;12.38;;;6.45;;
78027;SDS011;67235;45.638;11.714;2023-04-29T12:33:41;11.23;;;6.22;;
78027;SDS011;67235;45.638;11.714;2023-04-29T12:36:14;11.25;;;6.07;;
78027;SDS011;67235;45.638;11.714;2023-04-29T12:38:45;12.33;;;7.13;;
78027;SDS011;67235;45.638;11.714;2023-04-29T12:41:34;15.07;;;7.13;;
78027;SDS011;67235;45.638;11.714;2023-04-29T12:44:01;12.40;;;6.85;;
78027;SDS011;67235;45.638;11.714;2023-04-29T12:46:28;11.55;;;6.80;;
78027;SDS011;67235;45.638;11.714;2023-04-29T12:49:01;10.98;;;6.10;;
78027;SDS011;67235;45.638;11.714;2023-04-29T12:51:31;12.00;;;6.00;;
78027;SDS011;67235;45.638;11.714;2023-04-29T12:53:58;10.77;;;6.30;;
78027;SDS011;67235;45.638;11.714;2023-04-29T12:56:31;10.25;;;5.90;;
78027;SDS011;67235;45.638;11.714;2023-04-29T12:59:04;13.30;;;6.72;;
78027;SDS011;67235;45.638;11.714;2023-04-29T13:01:37;11.32;;;6.00;;
78027;SDS011;67235;45.638;11.714;2023-04-29T13:04:03;10.90;;;6.70;;
78027;SDS011;67235;45.638;11.714;2023-04-29T13:06:32;11.63;;;6.55;;
78027;SDS011;67235;45.638;11.714;2023-04-29T13:09:03;12.18;;;6.65;;
78027;SDS011;67235;45.638;11.714;2023-04-29T13:11:30;9.52;;;6.07;;
78027;SDS011;67235;45.638;11.714;2023-04-29T13:13:56;12.83;;;6.63;;
78027;SDS011;67235;45.638;11.714;2023-04-29T13:16:22;11.27;;;6.50;;
78027;SDS011;67235;45.638;11.714;2023-04-29T13:18:48;11.30;;;6.53;;
78027;SDS011;67235;45.638;11.714;2023-04-29T13:21:14;14.15;;;6.63;;
78027;SDS011;67235;45.638;11.714;2023-04-29T13:23:40;11.00;;;6.80;;
78027;SDS011;67235;45.638;11.714;2023-04-29T13:26:06;12.95;;;6.70;;
78027;SDS011;67235;45.638;11.714;2023-04-29T13:28:33;13.07;;;7.18;;
78027;SDS011;67235;45.638;11.714;2023-04-29T13:30:59;10.90;;;6.07;;
78027;SDS011;67235;45.638;11.714;2023-04-29T13:33:25;13.55;;;6.47;;
78027;SDS011;67235;45.638;11.714;2023-04-29T13:35:51;12.95;;;6.45;;
78027;SDS011;67235;45.638;11.714;2023-04-29T13:38:16;12.17;;;5.90;;
78027;SDS011;67235;45.638;11.714;2023-04-29T13:40:42;11.23;;;6.32;;
78027;SDS011;67235;45.638;11.714;2023-04-29T13:43:08;12.73;;;6.43;;
78027;SDS011;67235;45.638;11.714;2023-04-29T13:45:34;11.82;;;6.25;;
78027;SDS011;67235;45.638;11.714;2023-04-29T13:48:00;12.35;;;6.70;;
78027;SDS011;67235;45.638;11.714;2023-04-29T13:50:26;12.23;;;6.13;;
78027;SDS011;67235;45.638;11.714;2023-04-29T13:52:52;11.95;;;6.43;;
78027;SDS011;67235;45.638;11.714;2023-04-29T13:55:18;14.15;;;6.28;;
78027;SDS011;67235;45.638;11.714;2023-04-29T13:57:45;12.57;;;6.03;;
78027;SDS011;67235;45.638;11.714;2023-04-29T14:00:11;10.73;;;5.60;;
78027;SDS011;67235;45.638;11.714;2023-04-29T14:02:37;11.10;;;6.05;;
78027;SDS011;67235;45.638;11.714;2023-04-29T14:05:03;11.38;;;6.05;;
78027;SDS011;67235;45.638;11.714;2023-04-29T14:07:30;10.35;;;5.95;;
78027;SDS011;67235;45.638;11.714;2023-04-29T14:09:55;14.60;;;6.75;;
78027;SDS011;67235;45.638;11.714;2023-04-29T14:12:21;14.60;;;6.65;;
78027;SDS011;67235;45.638;11.714;2023-04-29T14:14:47;10.73;;;6.20;;
78027;SDS011;67235;45.638;11.714;2023-04-29T14:17:13;10.25;;;5.97;;
78027;SDS011;67235;45.638;11.714;2023-04-29T14:19:39;11.80;;;5.35;;
78027;SDS011;67235;45.638;11.714;2023-04-29T14:22:05;12.77;;;5.88;;
78027;SDS011;67235;45.638;11.714;2023-04-29T14:24:31;11.63;;;6.10;;
78027;SDS011;67235;45.638;11.714;2023-04-29T14:26:57;10.27;;;6.07;;
78027;SDS011;67235;45.638;11.714;2023-04-29T14:29:23;9.47;;;6.13;;
78027;SDS011;67235;45.638;11.714;2023-04-29T14:31:48;10.18;;;5.15;;
78027;SDS011;67235;45.638;11.714;2023-04-29T14:34:14;10.38;;;5.05;;
78027;SDS011;67235;45.638;11.714;2023-04-29T14:36:40;9.07;;;5.80;;
78027;SDS011;67235;45.638;11.714;2023-04-29T14:39:06;9.98;;;5.35;;
78027;SDS011;67235;45.638;11.714;2023-04-29T14:41:32;10.23;;;5.55;;
78027;SDS011;67235;45.638;11.714;2023-04-29T14:43:58;10.57;;;5.30;;
78027;SDS011;67235;45.638;11.714;2023-04-29T14:46:24;8.82;;;5.38;;
78027;SDS011;67235;45.638;11.714;2023-04-29T14:48:50;10.70;;;5.07;;
78027;SDS011;67235;45.638;11.714;2023-04-29T14:51:15;11.30;;;5.30;;
78027;SDS011;67235;45.638;11.714;2023-04-29T14:53:41;9.25;;;4.90;;
78027;SDS011;67235;45.638;11.714;2023-04-29T14:56:07;9.50;;;5.00;;
78027;SDS011;67235;45.638;11.714;2023-04-29T14:58:33;10.10;;;5.15;;
78027;SDS011;67235;45.638;11.714;2023-04-29T15:00:59;9.48;;;5.30;;
78027;SDS011;67235;45.638;11.714;2023-04-29T15:03:25;11.13;;;5.70;;